Time;durP1;ratioP1;P1;durP2;ratioP2;P2;SDS_P1;SDS_P2;PMS_P1;PMS_P2;Temp;Humidity;BMP_temperature;BMP_pressure;BME280_temperature;BME280_humidity;BME280_pressure;Samples;Min_cycle;Max_cycle;Signal;HPM_P1;HPM_P2
2023/05/05 00:01:27;;;;;;;0.30;0.30;;;;;;;11.75;58.51;97684.66;5006283;28;20460;-69
2023/05/05 00:03:55;;;;;;;0.90;0.90;;;;;;;11.73;59.05;97675.16;5011242;28;20056;-67
2023/05/05 00:06:23;;;;;;;0.60;0.40;;;;;;;11.70;58.78;97676.38;5016316;28;20412;-67
2023/05/05 00:08:50;;;;;;;0.80;0.80;;;;;;;11.65;59.18;97669.97;5020681;28;20037;-67
2023/05/05 00:11:18;;;;;;;0.30;0.30;;;;;;;11.80;58.78;97673.38;5009501;28;20695;-68
2023/05/05 00:13:45;;;;;;;1.02;1.02;;;;;;;11.61;59.60;97680.25;5006317;28;20062;-67
2023/05/05 00:16:13;;;;;;;0.70;0.70;;;;;;;11.61;59.83;97674.91;5013186;28;20049;-67
2023/05/05 00:18:42;;;;;;;0.70;0.70;;;;;;;11.67;59.30;97678.63;5025662;28;20554;-68
2023/05/05 00:21:09;;;;;;;0.88;0.88;;;;;;;11.42;60.39;97685.50;5013420;28;20543;-67
2023/05/05 00:23:37;;;;;;;0.65;0.65;;;;;;;11.35;60.59;97682.78;5006839;28;20046;-67
2023/05/05 00:26:05;;;;;;;0.50;0.40;;;;;;;11.34;60.37;97676.59;5008319;28;20479;-68
2023/05/05 00:28:32;;;;;;;0.82;0.82;;;;;;;11.33;59.97;97679.47;5001926;28;20038;-69
2023/05/05 00:31:00;;;;;;;0.95;0.95;;;;;;;11.18;60.88;97676.94;5012882;28;20053;-66
2023/05/05 00:33:28;;;;;;;0.20;0.20;;;;;;;11.18;60.86;97674.28;5004662;28;20460;-68
2023/05/05 00:35:57;;;;;;;0.88;0.88;;;;;;;11.10;60.93;97676.28;5018275;28;20042;-68
2023/05/05 00:38:24;;;;;;;0.70;0.70;;;;;;;11.13;61.47;97678.53;5037618;28;20049;-68
2023/05/05 00:40:53;;;;;;;0.30;0.30;;;;;;;10.93;61.95;97675.72;5008863;28;20444;-69
2023/05/05 00:43:20;;;;;;;0.75;0.75;;;;;;;10.88;61.90;97665.66;5031637;28;20049;-68
2023/05/05 00:45:51;;;;;;;0.77;0.77;;;;;;;10.81;62.46;97662.09;5026001;28;20091;-68
2023/05/05 00:48:23;;;;;;;0.75;0.32;;;;;;;10.74;62.02;97660.41;5015102;28;20467;-68
2023/05/05 00:50:50;;;;;;;0.77;0.77;;;;;;;10.76;62.81;97658.38;5018028;28;20055;-68
2023/05/05 00:53:19;;;;;;;1.08;0.63;;;;;;;10.84;62.23;97655.53;5015572;28;20058;-69
2023/05/05 00:55:47;;;;;;;1.30;0.88;;;;;;;10.73;63.18;97648.06;5011061;28;20058;-69
2023/05/05 00:58:14;;;;;;;0.80;0.80;;;;;;;10.75;62.72;97646.84;5017566;28;20045;-69
2023/05/05 01:00:42;;;;;;;0.73;0.73;;;;;;;10.78;63.03;97648.31;5015475;28;20050;-69
2023/05/05 01:03:11;;;;;;;0.75;0.75;;;;;;;10.48;64.31;97645.00;5004886;28;20115;-69
2023/05/05 01:05:45;;;;;;;1.35;0.70;;;;;;;10.66;63.22;97648.03;5007923;28;20041;-68
2023/05/05 01:08:23;;;;;;;1.08;1.00;;;;;;;10.47;64.00;97649.53;5006561;28;20044;-68
2023/05/05 01:10:52;;;;;;;;;;;;;;;10.60;63.25;97646.09;5013277;28;20126;-68
2023/05/05 01:13:26;;;;;;;0.35;0.25;;;;;;;10.47;63.86;97644.19;5004112;28;20305;-69
2023/05/05 01:16:00;;;;;;;0.63;0.63;;;;;;;10.39;64.21;97643.47;5014134;28;20494;-68
2023/05/05 01:18:32;;;;;;;0.80;0.80;;;;;;;10.36;64.26;97646.53;5013586;28;20390;-68
2023/05/05 01:21:06;;;;;;;1.10;1.10;;;;;;;10.31;64.78;97641.78;5018156;28;20080;-68
2023/05/05 01:23:54;;;;;;;0.68;0.68;;;;;;;10.23;65.12;97647.25;5010551;28;20099;-68
2023/05/05 01:26:40;;;;;;;0.60;0.60;;;;;;;10.19;65.22;97645.97;5005422;28;20052;-68
2023/05/05 01:29:40;;;;;;;1.13;1.13;;;;;;;10.32;64.73;97646.09;5017128;28;20037;-68
2023/05/05 01:32:10;;;;;;;0.77;0.75;;;;;;;10.40;64.29;97647.78;5000507;28;20050;-68
2023/05/05 01:34:42;;;;;;;0.88;0.88;;;;;;;10.36;64.61;97647.38;5018307;28;20045;-69
2023/05/05 01:37:12;;;;;;;0.88;0.88;;;;;;;10.36;64.31;97649.22;5015090;28;20076;-69
2023/05/05 01:39:40;;;;;;;0.60;0.60;;;;;;;10.30;64.27;97640.94;5023175;28;20095;-69
2023/05/05 01:42:12;;;;;;;0.50;0.40;;;;;;;10.21;65.22;97644.75;5008164;28;20398;-68
2023/05/05 01:44:42;;;;;;;0.90;0.90;;;;;;;10.20;65.08;97650.28;5005142;28;20386;-69
2023/05/05 01:47:12;;;;;;;0.75;0.75;;;;;;;10.27;64.91;97652.00;5002904;28;20050;-69
2023/05/05 01:49:40;;;;;;;1.05;1.05;;;;;;;10.28;64.83;97647.47;5009261;28;20050;-69
2023/05/05 01:52:09;;;;;;;0.60;0.60;;;;;;;10.28;64.79;97648.31;5015463;28;20057;-69
2023/05/05 01:54:37;;;;;;;0.90;0.90;;;;;;;10.21;65.10;97649.28;5029336;28;20061;-68
2023/05/05 01:57:05;;;;;;;0.73;0.73;;;;;;;10.35;64.72;97651.06;5010062;28;20038;-68
2023/05/05 01:59:33;;;;;;;0.80;0.80;;;;;;;10.16;65.25;97649.81;5026264;28;20501;-68
2023/05/05 02:02:02;;;;;;;0.80;0.80;;;;;;;10.05;65.53;97650.31;5017372;28;20056;-68
2023/05/05 02:04:32;;;;;;;0.60;0.60;;;;;;;9.92;66.04;97653.69;5017655;28;20042;-68
2023/05/05 02:07:02;;;;;;;0.75;0.75;;;;;;;9.91;66.04;97649.34;5026592;28;20564;-69
2023/05/05 02:09:30;;;;;;;0.80;0.80;;;;;;;9.99;65.71;97642.25;5021769;28;20038;-68
2023/05/05 02:11:58;;;;;;;1.25;1.17;;;;;;;9.97;65.62;97636.28;5016708;28;20679;-68
2023/05/05 02:14:27;;;;;;;0.50;0.50;;;;;;;10.09;65.33;97640.09;5014626;28;20050;-68
2023/05/05 02:16:56;;;;;;;0.90;0.90;;;;;;;10.18;64.88;97641.63;5020759;28;20033;-69
2023/05/05 02:19:28;;;;;;;0.77;0.77;;;;;;;9.92;65.90;97640.34;5009558;28;20038;-68
2023/05/05 02:21:57;;;;;;;0.70;0.70;;;;;;;9.63;66.74;97640.44;5018819;28;20042;-68
2023/05/05 02:24:25;;;;;;;0.82;0.82;;;;;;;9.61;66.86;97646.97;5034114;28;20053;-68
2023/05/05 02:26:53;;;;;;;0.85;0.85;;;;;;;9.68;66.44;97645.19;5003022;28;20046;-68
2023/05/05 02:29:25;;;;;;;1.08;1.08;;;;;;;9.79;66.37;97648.19;5010589;28;20064;-69
2023/05/05 02:31:55;;;;;;;0.70;0.70;;;;;;;9.55;67.35;97653.88;5000118;28;20506;-68
2023/05/05 02:34:27;;;;;;;0.75;0.75;;;;;;;9.61;66.80;97642.47;5017982;28;20497;-68
2023/05/05 02:36:58;;;;;;;0.90;0.90;;;;;;;9.50;67.23;97650.94;4998438;28;20061;-68
2023/05/05 02:39:30;;;;;;;;;;;;;;;9.51;67.03;97647.25;5026492;28;20058;-68
2023/05/05 02:42:02;;;;;;;0.82;0.82;;;;;;;9.38;67.66;97650.56;5017444;28;20005;-68
2023/05/05 02:44:31;;;;;;;0.70;0.70;;;;;;;9.30;68.01;97644.53;5025983;28;20571;-68
2023/05/05 02:46:59;;;;;;;0.85;0.85;;;;;;;9.37;67.85;97648.09;5026350;28;20128;-68
2023/05/05 02:49:26;;;;;;;0.85;0.85;;;;;;;9.41;67.53;97644.06;5017477;28;20105;-69
2023/05/05 02:52:00;;;;;;;0.95;0.95;;;;;;;9.46;67.46;97644.31;5007605;28;20301;-68
2023/05/05 02:54:33;;;;;;;0.75;0.75;;;;;;;9.52;67.30;97640.91;5026764;28;20046;-69
2023/05/05 02:57:04;;;;;;;0.85;0.85;;;;;;;9.47;67.26;97646.78;5006145;28;20053;-68
2023/05/05 02:59:39;;;;;;;0.90;0.90;;;;;;;9.34;67.75;97643.16;5025561;28;20046;-68
2023/05/05 03:02:15;;;;;;;0.85;0.85;;;;;;;9.33;67.97;97641.50;5008155;28;20154;-68
2023/05/05 03:04:45;;;;;;;0.68;0.68;;;;;;;9.44;67.34;97638.38;5019073;28;20046;-69
2023/05/05 03:07:21;;;;;;;0.68;0.68;;;;;;;9.48;67.33;97632.47;5004712;28;20081;-69
2023/05/05 03:09:56;;;;;;;1.08;1.08;;;;;;;9.49;67.22;97634.13;5004717;28;20042;-69
2023/05/05 03:12:27;;;;;;;0.82;0.82;;;;;;;9.67;66.25;97623.03;5021856;28;20386;-68
2023/05/05 03:15:09;;;;;;;1.02;1.02;;;;;;;9.53;67.04;97632.75;5009660;28;20399;-68
2023/05/05 03:17:38;;;;;;;0.70;0.70;;;;;;;9.44;67.17;97628.53;5011931;28;20046;-68
2023/05/05 03:20:07;;;;;;;0.85;0.85;;;;;;;9.38;67.24;97633.75;5013653;28;20038;-68
2023/05/05 03:22:39;;;;;;;0.88;0.88;;;;;;;9.22;67.64;97631.31;5014651;28;20050;-69
2023/05/05 03:25:11;;;;;;;0.93;0.93;;;;;;;9.31;67.52;97635.53;5004151;28;20049;-68
2023/05/05 03:27:39;;;;;;;0.70;0.70;;;;;;;9.41;67.04;97633.41;4999960;28;20045;-68
2023/05/05 03:30:08;;;;;;;1.00;1.00;;;;;;;9.26;67.76;97636.06;5011552;28;20042;-68
2023/05/05 03:32:43;;;;;;;0.77;0.77;;;;;;;9.15;68.25;97636.53;5003283;28;20054;-68
2023/05/05 03:35:11;;;;;;;0.77;0.77;;;;;;;8.99;69.23;97642.88;5024139;28;20386;-68
2023/05/05 03:37:40;;;;;;;0.70;0.70;;;;;;;8.96;69.15;97634.44;5003877;28;20069;-68
2023/05/05 03:40:09;;;;;;;1.15;0.88;;;;;;;9.03;68.76;97633.50;5009792;28;20046;-68
2023/05/05 03:42:36;;;;;;;0.73;0.73;;;;;;;9.02;68.67;97631.06;5003609;28;20042;-69
2023/05/05 03:45:05;;;;;;;0.77;0.77;;;;;;;9.07;68.54;97631.31;5012497;28;20069;-68
2023/05/05 03:47:33;;;;;;;0.82;0.82;;;;;;;9.07;68.56;97626.00;5006796;28;20034;-69
2023/05/05 03:50:00;;;;;;;1.00;1.00;;;;;;;9.23;67.80;97631.13;5007349;28;20030;-69
2023/05/05 03:52:29;;;;;;;0.70;0.70;;;;;;;9.13;68.07;97627.94;5007296;28;20042;-68
2023/05/05 03:54:58;;;;;;;1.05;1.05;;;;;;;9.02;68.34;97628.41;5007096;28;20050;-68
2023/05/05 03:57:26;;;;;;;0.77;0.77;;;;;;;8.93;68.95;97627.63;5010926;28;20062;-67
2023/05/05 03:59:54;;;;;;;0.52;0.52;;;;;;;9.02;68.20;97631.88;5003950;28;20056;-68
2023/05/05 04:02:21;;;;;;;0.75;0.75;;;;;;;9.03;68.25;97624.72;5005028;28;20116;-67
2023/05/05 04:04:49;;;;;;;0.93;0.93;;;;;;;9.09;68.24;97622.13;5003323;28;20088;-67
2023/05/05 04:07:17;;;;;;;0.90;0.90;;;;;;;9.17;68.00;97619.38;4997288;28;20069;-67
2023/05/05 04:09:45;;;;;;;0.73;0.73;;;;;;;9.35;67.34;97620.81;4999761;28;20042;-67
2023/05/05 04:12:14;;;;;;;0.88;0.88;;;;;;;9.29;67.73;97626.88;5000530;28;20048;-68
2023/05/05 04:14:41;;;;;;;0.98;0.98;;;;;;;9.31;67.79;97625.69;5002656;28;20053;-67
2023/05/05 04:17:10;;;;;;;0.95;0.95;;;;;;;9.30;67.87;97623.22;5005710;28;20545;-67
2023/05/05 04:19:37;;;;;;;0.30;0.30;;;;;;;9.31;68.12;97624.88;4997882;28;20387;-67
2023/05/05 04:22:07;;;;;;;0.80;0.80;;;;;;;9.45;67.44;97613.34;5021775;28;20054;-68
2023/05/05 04:24:35;;;;;;;0.85;0.85;;;;;;;9.18;68.29;97626.34;5000582;28;20046;-68
2023/05/05 04:27:03;;;;;;;0.70;0.70;;;;;;;9.12;68.86;97616.44;5010976;28;20050;-68
2023/05/05 04:29:32;;;;;;;0.80;0.80;;;;;;;9.13;68.62;97625.28;5010212;28;20096;-67
2023/05/05 04:32:00;;;;;;;0.30;0.30;;;;;;;9.23;68.20;97623.16;5007085;28;20456;-67
2023/05/05 04:34:29;;;;;;;0.88;0.88;;;;;;;9.22;68.15;97615.34;5006160;28;20077;-68
2023/05/05 04:36:57;;;;;;;0.47;0.40;;;;;;;9.22;68.16;97626.00;5000680;28;20387;-67
2023/05/05 04:39:25;;;;;;;0.75;0.75;;;;;;;9.12;68.62;97624.44;5009760;28;20046;-68
2023/05/05 04:41:52;;;;;;;0.80;0.80;;;;;;;9.21;68.25;97630.50;4995200;28;20163;-67
2023/05/05 04:44:20;;;;;;;0.88;0.88;;;;;;;9.19;68.24;97624.53;5019669;28;20057;-69
2023/05/05 04:46:49;;;;;;;1.73;1.02;;;;;;;9.23;68.50;97638.31;5007424;28;20037;-68
2023/05/05 04:49:17;;;;;;;1.02;1.02;;;;;;;9.28;68.00;97638.56;5019648;28;20077;-67
2023/05/05 04:51:45;;;;;;;0.80;0.80;;;;;;;9.12;68.54;97635.09;5011427;28;20045;-68
2023/05/05 04:54:13;;;;;;;0.90;0.90;;;;;;;9.06;68.76;97629.66;5017413;28;20056;-68
2023/05/05 04:56:40;;;;;;;1.02;1.02;;;;;;;9.20;68.17;97636.81;5000771;28;20037;-68
2023/05/05 04:59:09;;;;;;;0.95;0.90;;;;;;;9.26;68.05;97635.25;5018351;28;20046;-68
2023/05/05 05:01:36;;;;;;;1.08;0.90;;;;;;;9.14;68.49;97638.38;5008368;28;20061;-68
2023/05/05 05:04:06;;;;;;;0.80;0.80;;;;;;;9.06;68.86;97633.16;5005565;28;20054;-68
2023/05/05 05:06:35;;;;;;;0.90;0.90;;;;;;;9.07;68.69;97639.31;5004965;28;20056;-68
2023/05/05 05:09:02;;;;;;;0.85;0.85;;;;;;;9.15;68.88;97631.22;5003511;28;20050;-68
2023/05/05 05:11:30;;;;;;;0.82;0.82;;;;;;;9.13;68.73;97634.09;5007770;28;20049;-68
2023/05/05 05:13:58;;;;;;;1.50;1.50;;;;;;;9.26;68.35;97629.91;4998614;28;20043;-68
2023/05/05 05:16:26;;;;;;;1.50;1.40;;;;;;;9.32;68.48;97630.03;5008763;28;20140;-68
2023/05/05 05:18:54;;;;;;;1.10;1.00;;;;;;;9.47;67.93;97627.31;5003018;28;20121;-67
2023/05/05 05:21:23;;;;;;;0.95;0.95;;;;;;;9.48;67.85;97615.66;5018111;28;20041;-68
2023/05/05 05:23:51;;;;;;;0.85;0.85;;;;;;;9.56;67.77;97626.19;5000563;28;20046;-67
2023/05/05 05:26:20;;;;;;;1.00;1.00;;;;;;;9.69;67.06;97625.53;5016663;28;20049;-67
2023/05/05 05:28:48;;;;;;;0.80;0.80;;;;;;;9.79;66.59;97623.38;5002224;28;20046;-67
2023/05/05 05:31:16;;;;;;;0.40;0.40;;;;;;;9.94;66.04;97622.31;5010952;28;20452;-67
2023/05/05 05:33:44;;;;;;;0.50;0.50;;;;;;;10.08;65.17;97627.75;5002511;28;20096;-67
2023/05/05 05:36:14;;;;;;;1.00;0.90;;;;;;;10.22;64.62;97629.59;5007369;28;20057;-67
2023/05/05 05:38:43;;;;;;;0.90;0.90;;;;;;;10.34;64.46;97629.91;5015476;28;20484;-67
2023/05/05 05:41:11;;;;;;;0.70;0.70;;;;;;;10.46;64.04;97623.84;5004728;28;20034;-67
2023/05/05 05:43:40;;;;;;;0.82;0.82;;;;;;;10.60;63.90;97625.59;4994428;28;20049;-67
2023/05/05 05:46:08;;;;;;;1.83;1.00;;;;;;;10.71;63.21;97628.75;5008950;28;20037;-67
2023/05/05 05:48:38;;;;;;;0.88;0.88;;;;;;;10.87;63.50;97618.59;5008558;28;20042;-67
2023/05/05 05:51:05;;;;;;;0.65;0.65;;;;;;;11.01;62.47;97619.50;5006820;28;20096;-67
2023/05/05 05:53:33;;;;;;;0.95;0.95;;;;;;;11.17;62.29;97619.19;4997876;28;20578;-67
2023/05/05 05:56:02;;;;;;;0.73;0.73;;;;;;;11.32;61.43;97621.69;5003253;28;20046;-67
2023/05/05 05:58:30;;;;;;;0.75;0.75;;;;;;;11.42;61.29;97624.03;5016423;28;20046;-67
2023/05/05 06:00:59;;;;;;;0.85;0.85;;;;;;;11.54;60.90;97619.75;5020193;28;20057;-67
2023/05/05 06:03:27;;;;;;;1.35;1.30;;;;;;;11.66;60.19;97616.31;5014825;28;20486;-69
2023/05/05 06:05:57;;;;;;;0.70;0.70;;;;;;;11.82;59.50;97608.97;5014941;28;20077;-67
2023/05/05 06:08:25;;;;;;;1.00;1.00;;;;;;;11.94;59.11;97620.75;4996935;28;20100;-67
2023/05/05 06:10:56;;;;;;;0.80;0.80;;;;;;;12.12;58.78;97624.47;5021176;28;20092;-67
2023/05/05 06:13:25;;;;;;;0.95;0.95;;;;;;;12.21;58.88;97619.75;5001222;28;20038;-67
2023/05/05 06:15:53;;;;;;;0.63;0.63;;;;;;;12.34;58.09;97626.97;5025456;28;20112;-67
2023/05/05 06:18:20;;;;;;;0.70;0.70;;;;;;;12.47;57.53;97625.09;5015877;28;20052;-67
2023/05/05 06:20:49;;;;;;;0.80;0.80;;;;;;;12.60;57.10;97635.00;5013909;28;20052;-67
2023/05/05 06:23:18;;;;;;;0.82;0.82;;;;;;;12.76;56.96;97626.56;5018162;28;20077;-67
2023/05/05 06:25:52;;;;;;;0.90;0.90;;;;;;;12.90;56.86;97619.31;5020526;28;20532;-67
2023/05/05 06:28:20;;;;;;;0.90;0.90;;;;;;;13.07;56.21;97625.91;5002954;28;20058;-67
2023/05/05 06:30:49;;;;;;;1.00;0.90;;;;;;;13.21;55.13;97635.56;5006258;28;20506;-67
2023/05/05 06:33:17;;;;;;;0.70;0.70;;;;;;;13.34;55.09;97632.03;5003985;28;20049;-67
2023/05/05 06:35:45;;;;;;;0.20;0.20;;;;;;;13.46;54.37;97634.88;5006585;28;20464;-67
2023/05/05 06:38:13;;;;;;;0.82;0.82;;;;;;;13.62;53.59;97636.25;5017178;28;20049;-67
2023/05/05 06:40:41;;;;;;;0.73;0.73;;;;;;;13.74;53.46;97634.53;5008993;28;20108;-67
2023/05/05 06:43:08;;;;;;;0.40;0.40;;;;;;;13.89;52.03;97632.41;5004566;28;20421;-67
2023/05/05 06:45:41;;;;;;;0.30;0.20;;;;;;;14.03;51.28;97635.84;5019426;28;20430;-67
2023/05/05 06:48:11;;;;;;;0.60;0.60;;;;;;;14.17;50.83;97629.34;5014419;28;20375;-67
2023/05/05 06:50:39;;;;;;;0.80;0.80;;;;;;;14.29;50.95;97633.81;5017042;28;20046;-67
2023/05/05 06:53:07;;;;;;;1.33;0.57;;;;;;;14.55;49.24;97627.44;5004504;28;20101;-67
2023/05/05 06:55:34;;;;;;;0.50;0.50;;;;;;;14.79;48.25;97623.13;5001075;28;20572;-67
2023/05/05 06:58:02;;;;;;;0.70;0.70;;;;;;;14.95;47.63;97627.13;5009261;28;20046;-67
2023/05/05 07:00:30;;;;;;;0.60;0.60;;;;;;;15.28;46.39;97626.75;5018490;28;20056;-67
2023/05/05 07:02:57;;;;;;;0.20;0.20;;;;;;;15.54;44.85;97615.75;5012995;28;20473;-67
2023/05/05 07:05:26;;;;;;;0.55;0.55;;;;;;;15.71;45.05;97615.94;5006904;28;20128;-67
2023/05/05 07:07:55;;;;;;;0.65;0.65;;;;;;;15.92;44.01;97610.06;5007203;28;20081;-67
2023/05/05 07:10:23;;;;;;;0.70;0.70;;;;;;;16.12;43.17;97610.59;5013568;28;20101;-67
2023/05/05 07:12:53;;;;;;;0.57;0.57;;;;;;;16.28;43.06;97605.63;5006598;28;20038;-67
2023/05/05 07:15:21;;;;;;;0.45;0.45;;;;;;;16.36;42.75;97608.81;4992903;28;20173;-67
2023/05/05 07:17:55;;;;;;;0.40;0.40;;;;;;;16.48;43.26;97600.75;5007697;28;20050;-67
2023/05/05 07:20:23;;;;;;;0.85;0.85;;;;;;;16.63;42.70;97611.09;5018256;28;20072;-66
2023/05/05 07:22:52;;;;;;;0.70;0.70;;;;;;;16.80;42.62;97601.28;5014020;28;20034;-67
2023/05/05 07:25:20;;;;;;;1.10;1.10;;;;;;;16.95;42.06;97603.50;5010111;28;20054;-67
2023/05/05 07:27:48;;;;;;;0.50;0.50;;;;;;;17.00;41.94;97609.84;5002076;28;20042;-67
2023/05/05 07:30:16;;;;;;;0.60;0.60;;;;;;;17.10;42.14;97603.84;5004167;28;20064;-67
2023/05/05 07:32:46;;;;;;;0.80;0.50;;;;;;;17.19;41.73;97608.66;5012937;28;20041;-67
2023/05/05 07:35:13;;;;;;;0.70;0.70;;;;;;;17.13;42.12;97619.59;5008819;28;20195;-67
2023/05/05 07:37:41;;;;;;;0.68;0.68;;;;;;;16.99;42.20;97613.59;5010728;28;20497;-67
2023/05/05 07:40:11;;;;;;;0.55;0.55;;;;;;;17.10;41.88;97614.66;5007896;28;20043;-67
2023/05/05 07:42:38;;;;;;;0.68;0.68;;;;;;;17.24;41.72;97610.63;5004672;28;20097;-67
2023/05/05 07:45:07;;;;;;;0.70;0.70;;;;;;;17.31;42.17;97610.53;5016521;28;20046;-67
2023/05/05 07:47:34;;;;;;;0.70;0.70;;;;;;;17.37;41.71;97609.56;5003868;28;20042;-67
2023/05/05 07:50:02;;;;;;;0.50;0.50;;;;;;;17.58;41.04;97615.16;5002831;28;20081;-67
2023/05/05 07:52:29;;;;;;;0.80;0.80;;;;;;;17.77;41.20;97617.69;5003252;28;20061;-67
2023/05/05 07:55:15;;;;;;;0.63;0.63;;;;;;;17.90;40.88;97618.25;5015413;28;20054;-67
2023/05/05 07:57:43;;;;;;;0.75;0.75;;;;;;;18.22;40.16;97607.78;5005353;28;20047;-67
2023/05/05 08:00:13;;;;;;;0.50;0.50;;;;;;;18.41;39.73;97594.84;4999287;28;20109;-67
2023/05/05 08:02:40;;;;;;;0.55;0.55;;;;;;;18.55;39.29;97604.31;5004477;28;20101;-67
2023/05/05 08:05:08;;;;;;;0.77;0.77;;;;;;;18.57;39.28;97599.50;5001536;28;20850;-67
2023/05/05 08:07:39;;;;;;;0.70;0.70;;;;;;;18.75;38.90;97603.84;5004200;28;20062;-67
2023/05/05 08:10:09;;;;;;;0.63;0.63;;;;;;;18.92;38.76;97606.53;5001163;28;20050;-68
2023/05/05 08:12:38;;;;;;;0.50;0.50;;;;;;;18.94;38.64;97609.81;5045340;22;20053;-76
2023/05/05 08:15:07;;;;;;;0.50;0.50;;;;;;;19.21;38.12;97597.19;5025170;28;20098;-76
2023/05/05 08:17:48;;;;;;;1.40;0.60;;;;;;;19.26;37.71;97600.00;5034152;28;20120;-75
2023/05/05 08:20:16;;;;;;;0.57;0.57;;;;;;;19.22;37.87;97603.44;5033647;28;20045;-75
2023/05/05 08:22:44;;;;;;;0.50;0.50;;;;;;;19.38;38.34;97592.59;5029636;28;20053;-76
2023/05/05 08:25:12;;;;;;;0.50;0.50;;;;;;;19.48;36.97;97591.06;5025689;28;20152;-76
2023/05/05 08:27:42;;;;;;;0.70;0.60;;;;;;;19.53;36.88;97597.38;5024942;28;20129;-75
2023/05/05 08:30:10;;;;;;;0.50;0.47;;;;;;;19.66;36.79;97593.50;5028953;28;20038;-76
2023/05/05 08:32:38;;;;;;;0.55;0.55;;;;;;;19.68;37.04;97589.47;5025126;28;20041;-77
2023/05/05 08:35:06;;;;;;;0.45;0.45;;;;;;;19.68;36.83;97583.22;5027266;28;20049;-75
2023/05/05 08:37:35;;;;;;;0.43;0.43;;;;;;;19.83;36.52;97590.72;5016661;28;20042;-76
2023/05/05 08:40:03;;;;;;;0.68;0.68;;;;;;;20.03;36.62;97596.38;5028748;28;20496;-75
2023/05/05 08:42:30;;;;;;;0.52;0.52;;;;;;;20.22;35.88;97592.22;5024646;28;20484;-75
2023/05/05 08:45:07;;;;;;;0.28;0.20;;;;;;;20.26;35.72;97590.63;5020610;28;20485;-76
2023/05/05 08:47:36;;;;;;;0.50;0.50;;;;;;;20.42;35.30;97597.03;5024047;28;20056;-75
2023/05/05 08:50:05;;;;;;;0.50;0.50;;;;;;;20.26;35.09;97584.38;5019235;28;20045;-76
2023/05/05 08:52:39;;;;;;;0.40;0.40;;;;;;;20.35;35.11;97585.59;5018754;28;20045;-76
2023/05/05 08:55:13;;;;;;;0.40;0.40;;;;;;;20.66;34.68;97584.75;5016861;28;20041;-75
2023/05/05 08:57:45;;;;;;;0.60;0.60;;;;;;;20.79;34.26;97589.75;5024708;28;20045;-77
2023/05/05 09:00:15;;;;;;;0.50;0.50;;;;;;;20.75;33.97;97585.94;5021224;28;20439;-76
2023/05/05 09:02:43;;;;;;;0.50;0.50;;;;;;;20.74;34.23;97583.47;5023940;28;20045;-77
2023/05/05 09:05:11;;;;;;;0.68;0.68;;;;;;;20.83;34.85;97584.63;5026152;28;20497;-76
2023/05/05 09:07:40;;;;;;;0.50;0.50;;;;;;;20.64;34.69;97584.22;5029136;28;20505;-76
2023/05/05 09:10:09;;;;;;;0.50;0.50;;;;;;;20.63;34.99;97585.28;5030453;28;20052;-76
2023/05/05 09:12:39;;;;;;;0.52;0.52;;;;;;;20.87;34.76;97581.13;5020783;28;20046;-76
2023/05/05 09:15:08;;;;;;;0.60;0.60;;;;;;;21.10;33.96;97574.50;5019142;28;20078;-77
2023/05/05 09:17:37;;;;;;;0.50;0.50;;;;;;;21.04;34.59;97569.31;5021898;28;20103;-76
2023/05/05 09:20:07;;;;;;;0.43;0.43;;;;;;;21.41;33.91;97572.78;5021863;28;20059;-76
2023/05/05 09:22:36;;;;;;;0.40;0.40;;;;;;;21.63;33.74;97571.78;5025123;28;20096;-75
2023/05/05 09:25:05;;;;;;;0.50;0.50;;;;;;;21.29;33.73;97576.78;5023580;28;20045;-76
2023/05/05 09:27:36;;;;;;;0.30;0.30;;;;;;;21.27;34.16;97570.81;5036712;28;20045;-78
2023/05/05 09:30:04;;;;;;;0.40;0.40;;;;;;;21.54;33.51;97577.75;5029753;28;20053;-75
2023/05/05 09:32:44;;;;;;;0.55;0.55;;;;;;;21.88;33.48;97564.56;5034107;28;20052;-77
2023/05/05 09:35:12;;;;;;;0.40;0.40;;;;;;;22.18;33.17;97563.81;5025172;28;20107;-75
2023/05/05 09:37:40;;;;;;;0.60;0.60;;;;;;;22.33;32.31;97558.38;5025096;28;20112;-75
2023/05/05 09:40:09;;;;;;;0.57;0.55;;;;;;;22.18;32.40;97563.81;5029978;28;20041;-75
2023/05/05 09:42:37;;;;;;;0.30;0.30;;;;;;;22.10;33.08;97556.22;5026971;28;20060;-76
2023/05/05 09:45:24;;;;;;;0.30;0.30;;;;;;;22.27;33.11;97553.22;5028591;28;20041;-76
2023/05/05 09:47:54;;;;;;;0.30;0.20;;;;;;;22.38;32.53;97552.16;5026159;28;20455;-76
2023/05/05 09:50:29;;;;;;;0.40;0.40;;;;;;;22.52;32.73;97549.72;5020686;28;20056;-76
2023/05/05 09:52:58;;;;;;;0.35;0.35;;;;;;;22.60;32.97;97552.69;5026124;28;20052;-77
2023/05/05 09:55:26;;;;;;;0.40;0.40;;;;;;;22.58;32.95;97545.91;5022963;28;20472;-76
2023/05/05 09:57:54;;;;;;;0.50;0.50;;;;;;;22.87;31.65;97546.16;5026606;28;20034;-76
2023/05/05 10:00:21;;;;;;;0.55;0.55;;;;;;;23.00;31.60;97540.97;5021326;28;20041;-76
2023/05/05 10:02:49;;;;;;;0.30;0.30;;;;;;;22.98;31.73;97539.63;5026993;28;20103;-76
2023/05/05 10:05:18;;;;;;;0.52;0.52;;;;;;;23.12;31.93;97537.13;5027160;28;20050;-76
2023/05/05 10:07:47;;;;;;;0.50;0.40;;;;;;;23.17;32.17;97543.38;5024182;28;20080;-75
2023/05/05 10:10:16;;;;;;;0.40;0.40;;;;;;;23.07;31.87;97537.94;5029354;28;20041;-75
2023/05/05 10:12:45;;;;;;;0.40;0.40;;;;;;;23.25;31.66;97542.81;5028853;28;20049;-75
2023/05/05 10:15:15;;;;;;;0.50;0.50;;;;;;;23.17;31.88;97534.38;5029180;28;20045;-76
2023/05/05 10:17:46;;;;;;;0.25;0.20;;;;;;;22.89;32.70;97536.63;5016342;28;20416;-75
2023/05/05 10:20:35;;;;;;;0.47;0.47;;;;;;;22.68;32.60;97540.44;5016478;28;20112;-76
2023/05/05 10:23:06;;;;;;;0.40;0.40;;;;;;;22.53;32.79;97538.53;5027135;28;20121;-76
2023/05/05 10:25:39;;;;;;;0.30;0.30;;;;;;;22.77;33.32;97529.84;5030107;28;20045;-76
2023/05/05 10:28:08;;;;;;;0.30;0.30;;;;;;;22.96;32.62;97539.06;5027264;28;20045;-76
2023/05/05 10:30:39;;;;;;;0.50;0.50;;;;;;;22.82;33.16;97538.84;5028288;28;20053;-76
2023/05/05 10:33:16;;;;;;;0.35;0.35;;;;;;;23.06;32.78;97536.31;5023317;28;20054;-76
2023/05/05 10:36:02;;;;;;;0.40;0.40;;;;;;;23.45;32.02;97520.13;5024334;28;20041;-75
2023/05/05 10:38:30;;;;;;;0.40;0.40;;;;;;;23.15;32.62;97533.88;5016278;28;20046;-75
2023/05/05 10:40:59;;;;;;;0.47;0.47;;;;;;;23.13;32.42;97536.06;5030174;28;20046;-75
2023/05/05 10:43:28;;;;;;;0.30;0.30;;;;;;;23.34;32.33;97527.53;5026649;28;20053;-75
2023/05/05 10:45:56;;;;;;;0.28;0.28;;;;;;;23.57;32.02;97526.09;5025482;28;20049;-76
2023/05/05 10:48:29;;;;;;;0.38;0.38;;;;;;;23.52;31.85;97526.13;5030825;28;20037;-76
2023/05/05 10:51:08;;;;;;;0.50;0.50;;;;;;;23.47;31.71;97526.09;5028399;28;20041;-75
2023/05/05 10:53:42;;;;;;;0.30;0.30;;;;;;;23.51;32.34;97521.75;5029893;28;20059;-77
2023/05/05 10:56:15;;;;;;;0.40;0.40;;;;;;;23.52;32.26;97508.97;5021966;28;20042;-76
2023/05/05 10:58:42;;;;;;;0.40;0.40;;;;;;;23.53;32.03;97507.88;5026086;28;20183;-76
2023/05/05 11:01:30;;;;;;;0.50;0.50;;;;;;;23.82;32.04;97505.25;5023107;28;20049;-75
2023/05/05 11:04:18;;;;;;;1.00;0.47;;;;;;;23.62;32.14;97512.44;5020434;28;20567;-75
2023/05/05 11:07:23;;;;;;;0.35;0.30;;;;;;;23.65;32.80;97501.00;5028943;28;20057;-75
2023/05/05 11:10:00;;;;;;;0.60;0.60;;;;;;;23.71;32.40;97505.31;5028960;28;20137;-76
2023/05/05 11:12:27;;;;;;;0.50;0.50;;;;;;;23.72;32.13;97496.03;5036575;28;20049;-76
2023/05/05 11:15:36;;;;;;;0.50;0.50;;;;;;;23.70;32.62;97489.22;5037350;28;20052;-76
2023/05/05 11:18:04;;;;;;;0.77;0.50;;;;;;;23.99;32.09;97489.31;5040770;28;20116;-76
2023/05/05 11:21:07;;;;;;;1.30;0.47;;;;;;;24.23;32.10;97484.81;5036761;28;20045;-77
2023/05/05 11:23:36;;;;;;;0.40;0.40;;;;;;;24.20;32.41;97482.63;5031696;28;20056;-76
2023/05/05 11:26:04;;;;;;;0.22;0.22;;;;;;;24.01;32.34;97479.75;5026930;28;20042;-75
2023/05/05 11:28:32;;;;;;;0.30;0.30;;;;;;;24.02;32.20;97472.38;5030154;28;20075;-75
2023/05/05 11:31:16;;;;;;;0.40;0.40;;;;;;;24.27;31.57;97474.97;5029616;28;20504;-74
2023/05/05 11:33:43;;;;;;;0.47;0.47;;;;;;;24.30;31.99;97468.91;5029205;28;20069;-75
2023/05/05 11:36:12;;;;;;;0.45;0.40;;;;;;;24.39;31.50;97466.41;5028994;28;20042;-75
2023/05/05 11:38:52;;;;;;;0.40;0.40;;;;;;;24.33;32.11;97473.81;5025637;28;20050;-77
2023/05/05 11:41:30;;;;;;;0.50;0.50;;;;;;;24.57;32.08;97459.41;5026889;28;20053;-77
2023/05/05 11:44:10;;;;;;;0.45;0.45;;;;;;;24.39;32.07;97456.31;5032216;28;20060;-75
2023/05/05 11:46:39;;;;;;;0.38;0.38;;;;;;;24.48;31.76;97459.22;5024840;28;20443;-75
2023/05/05 11:49:07;;;;;;;0.20;0.15;;;;;;;24.47;31.58;97458.41;5024834;28;20496;-76
2023/05/05 11:51:35;;;;;;;0.30;0.30;;;;;;;24.37;32.50;97457.69;5021793;28;20115;-75